sensor_id;sensor_type;location;lat;lon;timestamp;P1;durP1;ratioP1;P2;durP2;ratioP2
25359;SDS011;13311;51.386;0.016;2023-04-24T00:01:21;25.05;;;18.95;;
25359;SDS011;13311;51.386;0.016;2023-04-24T00:06:22;32.20;;;23.08;;
25359;SDS011;13311;51.386;0.016;2023-04-24T00:11:23;33.60;;;25.15;;
25359;SDS011;13311;51.386;0.016;2023-04-24T00:16:24;32.05;;;24.17;;
25359;SDS011;13311;51.386;0.016;2023-04-24T00:21:25;32.28;;;25.48;;
25359;SDS011;13311;51.386;0.016;2023-04-24T00:26:26;33.72;;;24.80;;
25359;SDS011;13311;51.386;0.016;2023-04-24T00:31:27;33.42;;;23.92;;
25359;SDS011;13311;51.386;0.016;2023-04-24T00:36:28;28.95;;;22.10;;
25359;SDS011;13311;51.386;0.016;2023-04-24T00:41:29;33.50;;;23.58;;
25359;SDS011;13311;51.386;0.016;2023-04-24T00:46:30;32.78;;;23.33;;
25359;SDS011;13311;51.386;0.016;2023-04-24T00:51:32;30.23;;;22.98;;
25359;SDS011;13311;51.386;0.016;2023-04-24T00:56:34;27.15;;;22.42;;
25359;SDS011;13311;51.386;0.016;2023-04-24T01:01:35;24.63;;;19.92;;
25359;SDS011;13311;51.386;0.016;2023-04-24T01:06:36;29.75;;;21.40;;
25359;SDS011;13311;51.386;0.016;2023-04-24T01:11:40;29.77;;;21.92;;
25359;SDS011;13311;51.386;0.016;2023-04-24T01:16:42;28.67;;;20.77;;
25359;SDS011;13311;51.386;0.016;2023-04-24T01:21:43;26.63;;;19.92;;
25359;SDS011;13311;51.386;0.016;2023-04-24T01:26:47;27.08;;;21.00;;
25359;SDS011;13311;51.386;0.016;2023-04-24T01:31:48;28.48;;;22.67;;
25359;SDS011;13311;51.386;0.016;2023-04-24T01:36:49;30.25;;;21.85;;
25359;SDS011;13311;51.386;0.016;2023-04-24T01:41:50;26.73;;;21.10;;
25359;SDS011;13311;51.386;0.016;2023-04-24T01:46:52;29.80;;;21.95;;
25359;SDS011;13311;51.386;0.016;2023-04-24T01:51:53;28.35;;;21.58;;
25359;SDS011;13311;51.386;0.016;2023-04-24T01:56:54;26.30;;;21.20;;
25359;SDS011;13311;51.386;0.016;2023-04-24T02:01:55;28.80;;;21.50;;
25359;SDS011;13311;51.386;0.016;2023-04-24T02:06:56;28.35;;;21.95;;
25359;SDS011;13311;51.386;0.016;2023-04-24T02:11:56;26.83;;;21.10;;
25359;SDS011;13311;51.386;0.016;2023-04-24T02:16:57;28.58;;;21.60;;
25359;SDS011;13311;51.386;0.016;2023-04-24T02:21:58;28.95;;;22.02;;
25359;SDS011;13311;51.386;0.016;2023-04-24T02:26:58;26.67;;;19.08;;
25359;SDS011;13311;51.386;0.016;2023-04-24T02:32:00;26.75;;;20.58;;
25359;SDS011;13311;51.386;0.016;2023-04-24T02:37:00;30.55;;;21.92;;
25359;SDS011;13311;51.386;0.016;2023-04-24T02:42:01;28.60;;;21.27;;
25359;SDS011;13311;51.386;0.016;2023-04-24T02:47:02;29.45;;;21.48;;
25359;SDS011;13311;51.386;0.016;2023-04-24T02:52:03;28.33;;;20.10;;
25359;SDS011;13311;51.386;0.016;2023-04-24T02:57:04;28.10;;;20.88;;
25359;SDS011;13311;51.386;0.016;2023-04-24T03:02:06;25.42;;;19.00;;
25359;SDS011;13311;51.386;0.016;2023-04-24T03:07:06;23.60;;;17.33;;
25359;SDS011;13311;51.386;0.016;2023-04-24T03:12:07;26.95;;;18.27;;
25359;SDS011;13311;51.386;0.016;2023-04-24T03:17:08;24.40;;;18.40;;
25359;SDS011;13311;51.386;0.016;2023-04-24T03:22:08;22.95;;;17.65;;
25359;SDS011;13311;51.386;0.016;2023-04-24T03:27:09;27.52;;;19.60;;
25359;SDS011;13311;51.386;0.016;2023-04-24T03:32:10;23.17;;;16.90;;
25359;SDS011;13311;51.386;0.016;2023-04-24T03:37:10;22.65;;;16.55;;
25359;SDS011;13311;51.386;0.016;2023-04-24T03:42:11;23.08;;;18.00;;
25359;SDS011;13311;51.386;0.016;2023-04-24T03:47:12;24.33;;;16.08;;
25359;SDS011;13311;51.386;0.016;2023-04-24T03:52:12;23.30;;;17.73;;
25359;SDS011;13311;51.386;0.016;2023-04-24T03:57:13;23.67;;;17.58;;
25359;SDS011;13311;51.386;0.016;2023-04-24T04:02:14;25.42;;;18.75;;
25359;SDS011;13311;51.386;0.016;2023-04-24T04:07:14;22.92;;;18.38;;
25359;SDS011;13311;51.386;0.016;2023-04-24T04:12:15;22.95;;;16.95;;
25359;SDS011;13311;51.386;0.016;2023-04-24T04:17:16;19.77;;;16.63;;
25359;SDS011;13311;51.386;0.016;2023-04-24T04:22:17;23.10;;;16.60;;
25359;SDS011;13311;51.386;0.016;2023-04-24T04:27:18;20.58;;;16.52;;
25359;SDS011;13311;51.386;0.016;2023-04-24T04:32:19;20.70;;;15.30;;
25359;SDS011;13311;51.386;0.016;2023-04-24T04:37:19;23.60;;;16.85;;
25359;SDS011;13311;51.386;0.016;2023-04-24T04:42:20;20.05;;;14.68;;
25359;SDS011;13311;51.386;0.016;2023-04-24T04:47:21;19.70;;;16.02;;
25359;SDS011;13311;51.386;0.016;2023-04-24T04:52:23;18.08;;;15.18;;
25359;SDS011;13311;51.386;0.016;2023-04-24T04:57:26;19.67;;;15.35;;
25359;SDS011;13311;51.386;0.016;2023-04-24T05:02:27;23.42;;;17.40;;
25359;SDS011;13311;51.386;0.016;2023-04-24T05:07:28;23.63;;;18.00;;
25359;SDS011;13311;51.386;0.016;2023-04-24T05:12:28;22.27;;;17.25;;
25359;SDS011;13311;51.386;0.016;2023-04-24T05:17:29;22.52;;;17.77;;
25359;SDS011;13311;51.386;0.016;2023-04-24T05:22:30;28.00;;;18.30;;
25359;SDS011;13311;51.386;0.016;2023-04-24T05:27:31;24.02;;;17.15;;
25359;SDS011;13311;51.386;0.016;2023-04-24T05:32:32;19.88;;;16.05;;
25359;SDS011;13311;51.386;0.016;2023-04-24T05:37:32;22.67;;;17.33;;
25359;SDS011;13311;51.386;0.016;2023-04-24T05:42:33;24.55;;;16.40;;
25359;SDS011;13311;51.386;0.016;2023-04-24T05:47:34;20.88;;;16.83;;
25359;SDS011;13311;51.386;0.016;2023-04-24T05:52:35;25.08;;;17.40;;
25359;SDS011;13311;51.386;0.016;2023-04-24T05:57:35;21.10;;;16.67;;
25359;SDS011;13311;51.386;0.016;2023-04-24T06:02:36;25.80;;;18.45;;
25359;SDS011;13311;51.386;0.016;2023-04-24T06:07:37;23.48;;;16.42;;
25359;SDS011;13311;51.386;0.016;2023-04-24T06:12:38;27.35;;;16.55;;
25359;SDS011;13311;51.386;0.016;2023-04-24T06:17:38;25.25;;;16.90;;
25359;SDS011;13311;51.386;0.016;2023-04-24T06:22:39;22.35;;;16.85;;
25359;SDS011;13311;51.386;0.016;2023-04-24T06:27:40;22.35;;;16.05;;
25359;SDS011;13311;51.386;0.016;2023-04-24T06:32:41;22.10;;;16.40;;
25359;SDS011;13311;51.386;0.016;2023-04-24T06:37:42;22.45;;;15.55;;
25359;SDS011;13311;51.386;0.016;2023-04-24T06:42:43;23.67;;;16.17;;
25359;SDS011;13311;51.386;0.016;2023-04-24T06:47:44;21.45;;;13.90;;
25359;SDS011;13311;51.386;0.016;2023-04-24T06:52:45;16.25;;;11.55;;
25359;SDS011;13311;51.386;0.016;2023-04-24T06:57:46;12.40;;;8.18;;
25359;SDS011;13311;51.386;0.016;2023-04-24T07:02:46;13.70;;;6.18;;
25359;SDS011;13311;51.386;0.016;2023-04-24T07:07:47;11.25;;;4.90;;
25359;SDS011;13311;51.386;0.016;2023-04-24T07:12:49;6.93;;;4.53;;
25359;SDS011;13311;51.386;0.016;2023-04-24T07:17:50;9.13;;;4.43;;
25359;SDS011;13311;51.386;0.016;2023-04-24T07:22:50;6.93;;;3.58;;
25359;SDS011;13311;51.386;0.016;2023-04-24T07:27:53;10.32;;;3.88;;
25359;SDS011;13311;51.386;0.016;2023-04-24T07:32:54;8.05;;;3.35;;
25359;SDS011;13311;51.386;0.016;2023-04-24T07:37:55;7.90;;;3.55;;
25359;SDS011;13311;51.386;0.016;2023-04-24T07:42:56;5.70;;;3.20;;
25359;SDS011;13311;51.386;0.016;2023-04-24T07:47:57;8.90;;;3.58;;
25359;SDS011;13311;51.386;0.016;2023-04-24T07:52:57;7.53;;;3.35;;
25359;SDS011;13311;51.386;0.016;2023-04-24T07:57:58;8.45;;;3.25;;
25359;SDS011;13311;51.386;0.016;2023-04-24T08:02:59;4.82;;;2.70;;
25359;SDS011;13311;51.386;0.016;2023-04-24T08:08:00;9.75;;;3.15;;
25359;SDS011;13311;51.386;0.016;2023-04-24T08:13:00;5.65;;;2.20;;
25359;SDS011;13311;51.386;0.016;2023-04-24T08:18:01;7.00;;;2.38;;
25359;SDS011;13311;51.386;0.016;2023-04-24T08:23:02;7.35;;;2.85;;
25359;SDS011;13311;51.386;0.016;2023-04-24T08:28:05;7.30;;;3.00;;
25359;SDS011;13311;51.386;0.016;2023-04-24T08:33:06;6.00;;;2.53;;
25359;SDS011;13311;51.386;0.016;2023-04-24T08:38:07;6.07;;;2.30;;
25359;SDS011;13311;51.386;0.016;2023-04-24T08:43:08;7.40;;;2.90;;
25359;SDS011;13311;51.386;0.016;2023-04-24T08:48:10;6.43;;;3.20;;
25359;SDS011;13311;51.386;0.016;2023-04-24T08:53:11;5.78;;;2.90;;
25359;SDS011;13311;51.386;0.016;2023-04-24T08:58:11;9.77;;;3.67;;
25359;SDS011;13311;51.386;0.016;2023-04-24T09:03:13;11.23;;;4.40;;
25359;SDS011;13311;51.386;0.016;2023-04-24T09:08:17;5.50;;;3.03;;
25359;SDS011;13311;51.386;0.016;2023-04-24T09:13:19;9.55;;;3.92;;
25359;SDS011;13311;51.386;0.016;2023-04-24T09:18:20;8.95;;;3.58;;
25359;SDS011;13311;51.386;0.016;2023-04-24T09:23:21;7.38;;;3.33;;
25359;SDS011;13311;51.386;0.016;2023-04-24T09:28:25;7.72;;;3.42;;
25359;SDS011;13311;51.386;0.016;2023-04-24T09:33:31;5.72;;;3.17;;
25359;SDS011;13311;51.386;0.016;2023-04-24T09:43:35;6.47;;;3.72;;
25359;SDS011;13311;51.386;0.016;2023-04-24T09:48:36;6.28;;;3.17;;
25359;SDS011;13311;51.386;0.016;2023-04-24T09:53:37;5.88;;;4.03;;
25359;SDS011;13311;51.386;0.016;2023-04-24T09:58:40;4.90;;;2.58;;
25359;SDS011;13311;51.386;0.016;2023-04-24T10:03:41;12.50;;;4.30;;
25359;SDS011;13311;51.386;0.016;2023-04-24T10:08:42;9.50;;;3.58;;
25359;SDS011;13311;51.386;0.016;2023-04-24T10:13:46;7.40;;;3.40;;
25359;SDS011;13311;51.386;0.016;2023-04-24T10:18:47;6.22;;;2.55;;
25359;SDS011;13311;51.386;0.016;2023-04-24T10:23:48;6.70;;;3.33;;
25359;SDS011;13311;51.386;0.016;2023-04-24T10:28:50;4.35;;;2.65;;
25359;SDS011;13311;51.386;0.016;2023-04-24T10:33:54;4.10;;;2.70;;
25359;SDS011;13311;51.386;0.016;2023-04-24T10:38:55;6.95;;;3.40;;
25359;SDS011;13311;51.386;0.016;2023-04-24T10:44:09;7.75;;;4.18;;
25359;SDS011;13311;51.386;0.016;2023-04-24T10:49:14;7.32;;;3.63;;
25359;SDS011;13311;51.386;0.016;2023-04-24T10:54:22;6.03;;;3.03;;
25359;SDS011;13311;51.386;0.016;2023-04-24T10:59:25;9.25;;;4.22;;
25359;SDS011;13311;51.386;0.016;2023-04-24T11:04:30;6.93;;;2.97;;
25359;SDS011;13311;51.386;0.016;2023-04-24T11:09:33;7.47;;;3.70;;
25359;SDS011;13311;51.386;0.016;2023-04-24T11:20:00;7.72;;;4.05;;
25359;SDS011;13311;51.386;0.016;2023-04-24T11:25:06;12.25;;;4.85;;
25359;SDS011;13311;51.386;0.016;2023-04-24T11:30:09;8.20;;;3.95;;
25359;SDS011;13311;51.386;0.016;2023-04-24T11:35:14;4.20;;;3.00;;
25359;SDS011;13311;51.386;0.016;2023-04-24T11:40:24;8.77;;;4.47;;
25359;SDS011;13311;51.386;0.016;2023-04-24T11:45:28;9.07;;;5.35;;
25359;SDS011;13311;51.386;0.016;2023-04-24T11:50:30;8.50;;;3.42;;
25359;SDS011;13311;51.386;0.016;2023-04-24T11:55:31;7.97;;;4.72;;
25359;SDS011;13311;51.386;0.016;2023-04-24T12:00:32;10.82;;;5.35;;
25359;SDS011;13311;51.386;0.016;2023-04-24T12:05:36;9.57;;;5.30;;
25359;SDS011;13311;51.386;0.016;2023-04-24T12:10:38;10.38;;;5.25;;
25359;SDS011;13311;51.386;0.016;2023-04-24T12:15:39;9.75;;;5.25;;
25359;SDS011;13311;51.386;0.016;2023-04-24T12:20:40;11.90;;;5.70;;
25359;SDS011;13311;51.386;0.016;2023-04-24T12:25:41;6.95;;;4.18;;
25359;SDS011;13311;51.386;0.016;2023-04-24T12:30:43;9.38;;;5.57;;
25359;SDS011;13311;51.386;0.016;2023-04-24T12:35:51;10.52;;;5.07;;
25359;SDS011;13311;51.386;0.016;2023-04-24T12:41:05;9.05;;;4.82;;
25359;SDS011;13311;51.386;0.016;2023-04-24T12:46:11;8.82;;;4.38;;
25359;SDS011;13311;51.386;0.016;2023-04-24T12:51:11;5.80;;;3.45;;
25359;SDS011;13311;51.386;0.016;2023-04-24T12:56:12;6.18;;;4.70;;
25359;SDS011;13311;51.386;0.016;2023-04-24T13:01:13;9.38;;;5.35;;
25359;SDS011;13311;51.386;0.016;2023-04-24T13:06:14;8.23;;;4.43;;
25359;SDS011;13311;51.386;0.016;2023-04-24T13:11:15;11.48;;;5.85;;
25359;SDS011;13311;51.386;0.016;2023-04-24T13:16:15;6.72;;;4.20;;
25359;SDS011;13311;51.386;0.016;2023-04-24T13:21:17;9.10;;;5.00;;
25359;SDS011;13311;51.386;0.016;2023-04-24T13:26:17;5.72;;;3.15;;
25359;SDS011;13311;51.386;0.016;2023-04-24T13:31:18;11.25;;;5.50;;
25359;SDS011;13311;51.386;0.016;2023-04-24T13:36:19;9.38;;;4.75;;
25359;SDS011;13311;51.386;0.016;2023-04-24T13:41:20;10.77;;;6.47;;
25359;SDS011;13311;51.386;0.016;2023-04-24T13:46:20;6.47;;;4.43;;
25359;SDS011;13311;51.386;0.016;2023-04-24T13:51:21;7.07;;;4.95;;
25359;SDS011;13311;51.386;0.016;2023-04-24T13:56:22;8.25;;;5.22;;
25359;SDS011;13311;51.386;0.016;2023-04-24T14:01:22;8.15;;;4.63;;
25359;SDS011;13311;51.386;0.016;2023-04-24T14:06:24;7.50;;;5.45;;
25359;SDS011;13311;51.386;0.016;2023-04-24T14:11:25;10.98;;;5.22;;
25359;SDS011;13311;51.386;0.016;2023-04-24T14:16:27;10.10;;;5.50;;
25359;SDS011;13311;51.386;0.016;2023-04-24T14:21:28;7.80;;;4.93;;
25359;SDS011;13311;51.386;0.016;2023-04-24T14:26:30;9.57;;;4.97;;
25359;SDS011;13311;51.386;0.016;2023-04-24T14:31:30;7.07;;;4.40;;
25359;SDS011;13311;51.386;0.016;2023-04-24T14:36:31;10.50;;;5.97;;
25359;SDS011;13311;51.386;0.016;2023-04-24T14:41:32;6.22;;;4.60;;
25359;SDS011;13311;51.386;0.016;2023-04-24T14:46:35;7.93;;;4.38;;
25359;SDS011;13311;51.386;0.016;2023-04-24T14:51:36;6.30;;;4.53;;
25359;SDS011;13311;51.386;0.016;2023-04-24T14:56:37;7.47;;;4.72;;
25359;SDS011;13311;51.386;0.016;2023-04-24T15:01:40;5.85;;;3.70;;
25359;SDS011;13311;51.386;0.016;2023-04-24T15:06:41;5.38;;;4.35;;
25359;SDS011;13311;51.386;0.016;2023-04-24T15:11:42;8.15;;;3.78;;
25359;SDS011;13311;51.386;0.016;2023-04-24T15:16:43;6.35;;;3.85;;
25359;SDS011;13311;51.386;0.016;2023-04-24T15:21:44;5.97;;;3.58;;
25359;SDS011;13311;51.386;0.016;2023-04-24T15:26:45;3.03;;;2.00;;
25359;SDS011;13311;51.386;0.016;2023-04-24T15:31:46;5.30;;;2.40;;
25359;SDS011;13311;51.386;0.016;2023-04-24T15:36:46;5.85;;;2.95;;
25359;SDS011;13311;51.386;0.016;2023-04-24T15:41:47;2.83;;;2.53;;
25359;SDS011;13311;51.386;0.016;2023-04-24T15:46:50;3.63;;;2.80;;
25359;SDS011;13311;51.386;0.016;2023-04-24T15:51:51;4.38;;;3.67;;
25359;SDS011;13311;51.386;0.016;2023-04-24T15:56:52;6.75;;;3.85;;
25359;SDS011;13311;51.386;0.016;2023-04-24T16:01:52;5.70;;;3.83;;
25359;SDS011;13311;51.386;0.016;2023-04-24T16:06:54;4.45;;;3.00;;
25359;SDS011;13311;51.386;0.016;2023-04-24T16:11:56;4.68;;;3.42;;
25359;SDS011;13311;51.386;0.016;2023-04-24T16:16:57;11.00;;;4.78;;
25359;SDS011;13311;51.386;0.016;2023-04-24T16:21:57;5.88;;;2.88;;
25359;SDS011;13311;51.386;0.016;2023-04-24T16:26:58;4.35;;;3.22;;
25359;SDS011;13311;51.386;0.016;2023-04-24T16:31:59;4.10;;;3.20;;
25359;SDS011;13311;51.386;0.016;2023-04-24T16:37:00;5.88;;;3.70;;
25359;SDS011;13311;51.386;0.016;2023-04-24T16:42:00;4.28;;;3.45;;
25359;SDS011;13311;51.386;0.016;2023-04-24T16:47:01;7.10;;;4.15;;
25359;SDS011;13311;51.386;0.016;2023-04-24T16:52:02;4.63;;;3.83;;
25359;SDS011;13311;51.386;0.016;2023-04-24T16:57:03;6.43;;;4.13;;
25359;SDS011;13311;51.386;0.016;2023-04-24T17:02:06;5.43;;;3.33;;
25359;SDS011;13311;51.386;0.016;2023-04-24T17:07:08;4.45;;;3.03;;
25359;SDS011;13311;51.386;0.016;2023-04-24T17:12:09;5.70;;;3.05;;
25359;SDS011;13311;51.386;0.016;2023-04-24T17:17:09;3.42;;;3.08;;
25359;SDS011;13311;51.386;0.016;2023-04-24T17:22:10;3.47;;;2.88;;
25359;SDS011;13311;51.386;0.016;2023-04-24T17:27:11;3.83;;;2.97;;
25359;SDS011;13311;51.386;0.016;2023-04-24T17:32:12;5.60;;;3.28;;
25359;SDS011;13311;51.386;0.016;2023-04-24T17:37:14;6.75;;;3.58;;
25359;SDS011;13311;51.386;0.016;2023-04-24T17:42:15;8.05;;;4.10;;
25359;SDS011;13311;51.386;0.016;2023-04-24T17:47:16;10.02;;;5.22;;
25359;SDS011;13311;51.386;0.016;2023-04-24T17:52:19;6.43;;;5.13;;
25359;SDS011;13311;51.386;0.016;2023-04-24T17:57:19;7.05;;;4.90;;
25359;SDS011;13311;51.386;0.016;2023-04-24T18:02:20;6.88;;;5.43;;
25359;SDS011;13311;51.386;0.016;2023-04-24T18:07:21;11.60;;;4.47;;
25359;SDS011;13311;51.386;0.016;2023-04-24T18:12:21;6.85;;;3.72;;
25359;SDS011;13311;51.386;0.016;2023-04-24T18:17:22;12.77;;;5.43;;
25359;SDS011;13311;51.386;0.016;2023-04-24T18:22:23;11.25;;;5.47;;
25359;SDS011;13311;51.386;0.016;2023-04-24T18:27:24;10.10;;;6.10;;
25359;SDS011;13311;51.386;0.016;2023-04-24T18:32:28;13.95;;;6.68;;
25359;SDS011;13311;51.386;0.016;2023-04-24T18:37:28;16.02;;;7.55;;
25359;SDS011;13311;51.386;0.016;2023-04-24T18:42:32;12.32;;;6.60;;
25359;SDS011;13311;51.386;0.016;2023-04-24T18:47:33;12.07;;;7.07;;
25359;SDS011;13311;51.386;0.016;2023-04-24T18:52:34;12.50;;;7.15;;
25359;SDS011;13311;51.386;0.016;2023-04-24T18:57:35;14.70;;;7.60;;
25359;SDS011;13311;51.386;0.016;2023-04-24T19:02:35;15.23;;;7.20;;
25359;SDS011;13311;51.386;0.016;2023-04-24T19:07:36;17.08;;;7.60;;
25359;SDS011;13311;51.386;0.016;2023-04-24T19:12:37;17.23;;;8.30;;
25359;SDS011;13311;51.386;0.016;2023-04-24T19:17:38;11.80;;;7.07;;
25359;SDS011;13311;51.386;0.016;2023-04-24T19:22:38;12.27;;;5.28;;
25359;SDS011;13311;51.386;0.016;2023-04-24T19:27:39;7.60;;;4.38;;
25359;SDS011;13311;51.386;0.016;2023-04-24T19:32:40;15.30;;;6.10;;
25359;SDS011;13311;51.386;0.016;2023-04-24T19:37:41;14.95;;;5.88;;
25359;SDS011;13311;51.386;0.016;2023-04-24T19:42:41;15.50;;;7.68;;
25359;SDS011;13311;51.386;0.016;2023-04-24T19:47:42;15.13;;;6.43;;
25359;SDS011;13311;51.386;0.016;2023-04-24T19:52:45;15.23;;;6.25;;
25359;SDS011;13311;51.386;0.016;2023-04-24T19:57:45;13.68;;;6.25;;
25359;SDS011;13311;51.386;0.016;2023-04-24T20:02:46;11.30;;;5.90;;
25359;SDS011;13311;51.386;0.016;2023-04-24T20:07:47;16.25;;;7.13;;
25359;SDS011;13311;51.386;0.016;2023-04-24T20:12:49;14.75;;;6.30;;
25359;SDS011;13311;51.386;0.016;2023-04-24T20:17:50;17.08;;;6.78;;
25359;SDS011;13311;51.386;0.016;2023-04-24T20:22:51;15.40;;;7.00;;
25359;SDS011;13311;51.386;0.016;2023-04-24T20:27:52;16.30;;;7.05;;
25359;SDS011;13311;51.386;0.016;2023-04-24T20:32:52;16.73;;;7.50;;
25359;SDS011;13311;51.386;0.016;2023-04-24T20:37:53;13.38;;;6.82;;
25359;SDS011;13311;51.386;0.016;2023-04-24T20:42:54;16.30;;;7.93;;
25359;SDS011;13311;51.386;0.016;2023-04-24T20:47:56;13.48;;;7.25;;
25359;SDS011;13311;51.386;0.016;2023-04-24T20:52:57;15.73;;;6.40;;
25359;SDS011;13311;51.386;0.016;2023-04-24T20:57:57;16.25;;;7.32;;
25359;SDS011;13311;51.386;0.016;2023-04-24T21:02:59;12.32;;;7.57;;
25359;SDS011;13311;51.386;0.016;2023-04-24T21:08:00;14.07;;;6.65;;
25359;SDS011;13311;51.386;0.016;2023-04-24T21:13:00;18.75;;;7.95;;
25359;SDS011;13311;51.386;0.016;2023-04-24T21:18:01;11.98;;;5.70;;
25359;SDS011;13311;51.386;0.016;2023-04-24T21:23:03;16.98;;;5.43;;
25359;SDS011;13311;51.386;0.016;2023-04-24T21:28:03;12.63;;;4.95;;
25359;SDS011;13311;51.386;0.016;2023-04-24T21:33:04;12.50;;;4.13;;
25359;SDS011;13311;51.386;0.016;2023-04-24T21:38:05;18.67;;;4.90;;
25359;SDS011;13311;51.386;0.016;2023-04-24T21:43:06;12.13;;;4.38;;
25359;SDS011;13311;51.386;0.016;2023-04-24T21:48:08;23.95;;;5.43;;
25359;SDS011;13311;51.386;0.016;2023-04-24T21:53:09;12.13;;;4.50;;
25359;SDS011;13311;51.386;0.016;2023-04-24T21:58:10;10.10;;;4.20;;
25359;SDS011;13311;51.386;0.016;2023-04-24T22:03:11;15.38;;;5.35;;
25359;SDS011;13311;51.386;0.016;2023-04-24T22:08:13;16.30;;;5.47;;
25359;SDS011;13311;51.386;0.016;2023-04-24T22:13:13;18.23;;;5.80;;
25359;SDS011;13311;51.386;0.016;2023-04-24T22:18:14;20.90;;;5.93;;
25359;SDS011;13311;51.386;0.016;2023-04-24T22:23:17;18.25;;;5.88;;
25359;SDS011;13311;51.386;0.016;2023-04-24T22:28:19;17.67;;;4.40;;
25359;SDS011;13311;51.386;0.016;2023-04-24T22:33:19;12.48;;;4.63;;
25359;SDS011;13311;51.386;0.016;2023-04-24T22:38:21;15.40;;;5.93;;
25359;SDS011;13311;51.386;0.016;2023-04-24T22:43:21;16.55;;;5.80;;
25359;SDS011;13311;51.386;0.016;2023-04-24T22:48:22;17.52;;;5.75;;
25359;SDS011;13311;51.386;0.016;2023-04-24T22:53:23;21.27;;;6.13;;
25359;SDS011;13311;51.386;0.016;2023-04-24T22:58:24;15.15;;;4.68;;
25359;SDS011;13311;51.386;0.016;2023-04-24T23:03:25;16.85;;;5.32;;
25359;SDS011;13311;51.386;0.016;2023-04-24T23:08:26;19.50;;;5.22;;
25359;SDS011;13311;51.386;0.016;2023-04-24T23:13:27;17.50;;;4.70;;
25359;SDS011;13311;51.386;0.016;2023-04-24T23:18:28;18.13;;;5.45;;
25359;SDS011;13311;51.386;0.016;2023-04-24T23:23:28;22.25;;;5.90;;
25359;SDS011;13311;51.386;0.016;2023-04-24T23:28:29;16.95;;;4.72;;
25359;SDS011;13311;51.386;0.016;2023-04-24T23:33:30;19.05;;;5.60;;
25359;SDS011;13311;51.386;0.016;2023-04-24T23:38:31;23.05;;;5.55;;
25359;SDS011;13311;51.386;0.016;2023-04-24T23:43:32;19.75;;;5.50;;
25359;SDS011;13311;51.386;0.016;2023-04-24T23:48:32;21.30;;;5.72;;
25359;SDS011;13311;51.386;0.016;2023-04-24T23:53:33;18.58;;;5.00;;
25359;SDS011;13311;51.386;0.016;2023-04-24T23:58:34;22.90;;;5.60;;
